Terminal Aerodrome Forecast
Issued by NWS

Home | Current Version | Previous Version | Graphics & Text | Print | Product List | Glossary On
Versions: 1 2 3 4 5 6 7 8 9 10 11 12 13 14
774
FTUS42 KMHX 190521
TAFPGV
TAF
KPGV 190521Z 1906/2006 22009G15KT P6SM SKC WS020/25045KT
     FM191000 23012KT P6SM FEW250
     FM191500 26015G23KT P6SM BKN050
     FM192300 31011KT P6SM FEW250
      AMD LTD TO CLD VIS AND WIND=

USA.gov is the U.S. government's official web portal to all federal, state and local government web resources and services.